Terminal Aerodrome Forecast
Issued by NWS

Home | Current Version | Previous Version | Text Only | Print | Product List | Glossary On
Versions: 1 2 3 4 5 6 7 8 9 10 11 12 13
173
FTUS46 KPDT 272321
TAFPSC
TAF
KPSC 272321Z 2800/2824 24015KT P6SM VCSH SCT070 BKN100
     FM280300 23007KT P6SM FEW100
     FM281400 21008KT P6SM FEW090 BKN180
     FM282000 23015KT P6SM SCT070 BKN100 OVC180=

USA.gov is the U.S. government's official web portal to all federal, state and local government web resources and services.